sensor_id;sensor_type;location;lat;lon;timestamp;P1;durP1;ratioP1;P2;durP2;ratioP2
2646;SDS011;1333;50.958;6.770;2023-04-01T00:01:54;1.67;;;0.63;;
2646;SDS011;1333;50.958;6.770;2023-04-01T00:04:19;0.90;;;0.70;;
2646;SDS011;1333;50.958;6.770;2023-04-01T00:06:45;0.97;;;0.60;;
2646;SDS011;1333;50.958;6.770;2023-04-01T00:09:12;1.00;;;0.70;;
2646;SDS011;1333;50.958;6.770;2023-04-01T00:11:38;1.03;;;0.60;;
2646;SDS011;1333;50.958;6.770;2023-04-01T00:14:04;1.37;;;0.60;;
2646;SDS011;1333;50.958;6.770;2023-04-01T00:16:32;1.17;;;0.83;;
2646;SDS011;1333;50.958;6.770;2023-04-01T00:18:57;1.67;;;0.80;;
2646;SDS011;1333;50.958;6.770;2023-04-01T00:21:24;0.80;;;0.50;;
2646;SDS011;1333;50.958;6.770;2023-04-01T00:23:50;1.20;;;0.60;;
2646;SDS011;1333;50.958;6.770;2023-04-01T00:26:16;1.80;;;0.80;;
2646;SDS011;1333;50.958;6.770;2023-04-01T00:28:44;1.90;;;0.93;;
2646;SDS011;1333;50.958;6.770;2023-04-01T00:31:10;2.03;;;0.70;;
2646;SDS011;1333;50.958;6.770;2023-04-01T00:33:37;0.90;;;0.60;;
2646;SDS011;1333;50.958;6.770;2023-04-01T00:36:10;1.40;;;0.50;;
2646;SDS011;1333;50.958;6.770;2023-04-01T00:38:40;5.33;;;0.70;;
2646;SDS011;1333;50.958;6.770;2023-04-01T00:41:08;1.93;;;0.77;;
2646;SDS011;1333;50.958;6.770;2023-04-01T00:43:39;3.73;;;0.87;;
2646;SDS011;1333;50.958;6.770;2023-04-01T00:46:05;1.77;;;0.60;;
2646;SDS011;1333;50.958;6.770;2023-04-01T00:48:32;0.80;;;0.50;;
2646;SDS011;1333;50.958;6.770;2023-04-01T00:51:04;1.20;;;0.70;;
2646;SDS011;1333;50.958;6.770;2023-04-01T00:53:31;0.80;;;0.60;;
2646;SDS011;1333;50.958;6.770;2023-04-01T00:56:07;1.00;;;0.60;;
2646;SDS011;1333;50.958;6.770;2023-04-01T00:58:59;1.67;;;0.70;;
2646;SDS011;1333;50.958;6.770;2023-04-01T01:01:26;0.90;;;0.50;;
2646;SDS011;1333;50.958;6.770;2023-04-01T01:03:54;0.97;;;0.60;;
2646;SDS011;1333;50.958;6.770;2023-04-01T01:06:29;2.30;;;0.60;;
2646;SDS011;1333;50.958;6.770;2023-04-01T01:09:15;1.50;;;0.63;;
2646;SDS011;1333;50.958;6.770;2023-04-01T01:11:50;1.20;;;0.70;;
2646;SDS011;1333;50.958;6.770;2023-04-01T01:14:44;2.60;;;0.70;;
2646;SDS011;1333;50.958;6.770;2023-04-01T01:17:36;1.00;;;0.60;;
2646;SDS011;1333;50.958;6.770;2023-04-01T01:20:28;0.80;;;0.50;;
2646;SDS011;1333;50.958;6.770;2023-04-01T01:25:40;0.80;;;0.60;;
2646;SDS011;1333;50.958;6.770;2023-04-01T01:36:40;0.93;;;0.60;;
2646;SDS011;1333;50.958;6.770;2023-04-01T01:39:10;0.80;;;0.60;;
2646;SDS011;1333;50.958;6.770;2023-04-01T01:41:38;1.43;;;1.20;;
2646;SDS011;1333;50.958;6.770;2023-04-01T01:44:06;1.00;;;0.60;;
2646;SDS011;1333;50.958;6.770;2023-04-01T01:46:36;1.00;;;0.60;;
2646;SDS011;1333;50.958;6.770;2023-04-01T01:49:04;1.87;;;0.63;;
2646;SDS011;1333;50.958;6.770;2023-04-01T01:51:31;1.80;;;0.70;;
2646;SDS011;1333;50.958;6.770;2023-04-01T01:53:56;0.80;;;0.60;;
2646;SDS011;1333;50.958;6.770;2023-04-01T01:56:23;1.10;;;0.60;;
2646;SDS011;1333;50.958;6.770;2023-04-01T01:59:00;1.97;;;0.60;;
2646;SDS011;1333;50.958;6.770;2023-04-01T02:01:31;0.90;;;0.50;;
2646;SDS011;1333;50.958;6.770;2023-04-01T02:04:00;2.40;;;0.87;;
2646;SDS011;1333;50.958;6.770;2023-04-01T02:06:28;1.37;;;0.60;;
2646;SDS011;1333;50.958;6.770;2023-04-01T02:14:13;0.80;;;0.60;;
2646;SDS011;1333;50.958;6.770;2023-04-01T02:19:17;0.80;;;0.60;;
2646;SDS011;1333;50.958;6.770;2023-04-01T02:21:49;1.87;;;0.57;;
2646;SDS011;1333;50.958;6.770;2023-04-01T02:24:20;1.00;;;0.60;;
2646;SDS011;1333;50.958;6.770;2023-04-01T02:26:50;1.00;;;0.70;;
2646;SDS011;1333;50.958;6.770;2023-04-01T02:29:18;0.93;;;0.67;;
2646;SDS011;1333;50.958;6.770;2023-04-01T02:31:46;0.80;;;0.50;;
2646;SDS011;1333;50.958;6.770;2023-04-01T02:34:13;0.70;;;0.50;;
2646;SDS011;1333;50.958;6.770;2023-04-01T02:36:39;0.70;;;0.50;;
2646;SDS011;1333;50.958;6.770;2023-04-01T02:39:05;0.73;;;0.53;;
2646;SDS011;1333;50.958;6.770;2023-04-01T02:41:32;0.90;;;0.53;;
2646;SDS011;1333;50.958;6.770;2023-04-01T02:44:04;1.20;;;0.70;;
2646;SDS011;1333;50.958;6.770;2023-04-01T02:46:30;0.80;;;0.60;;
2646;SDS011;1333;50.958;6.770;2023-04-01T02:48:55;0.70;;;0.60;;
2646;SDS011;1333;50.958;6.770;2023-04-01T02:51:21;0.90;;;0.57;;
2646;SDS011;1333;50.958;6.770;2023-04-01T02:53:46;0.70;;;0.50;;
2646;SDS011;1333;50.958;6.770;2023-04-01T02:56:12;0.80;;;0.60;;
2646;SDS011;1333;50.958;6.770;2023-04-01T02:58:37;0.70;;;0.50;;
2646;SDS011;1333;50.958;6.770;2023-04-01T03:01:03;1.87;;;0.70;;
2646;SDS011;1333;50.958;6.770;2023-04-01T03:03:28;1.97;;;0.93;;
2646;SDS011;1333;50.958;6.770;2023-04-01T03:05:54;1.00;;;0.57;;
2646;SDS011;1333;50.958;6.770;2023-04-01T03:08:24;0.70;;;0.50;;
2646;SDS011;1333;50.958;6.770;2023-04-01T03:10:50;7.30;;;0.60;;
2646;SDS011;1333;50.958;6.770;2023-04-01T03:13:16;0.70;;;0.50;;
2646;SDS011;1333;50.958;6.770;2023-04-01T03:15:41;0.70;;;0.50;;
2646;SDS011;1333;50.958;6.770;2023-04-01T03:18:06;0.70;;;0.50;;
2646;SDS011;1333;50.958;6.770;2023-04-01T03:20:32;0.70;;;0.50;;
2646;SDS011;1333;50.958;6.770;2023-04-01T03:22:58;0.70;;;0.53;;
2646;SDS011;1333;50.958;6.770;2023-04-01T03:25:23;1.13;;;0.70;;
2646;SDS011;1333;50.958;6.770;2023-04-01T03:27:49;1.43;;;0.60;;
2646;SDS011;1333;50.958;6.770;2023-04-01T03:30:14;0.90;;;0.50;;
2646;SDS011;1333;50.958;6.770;2023-04-01T03:32:40;0.80;;;0.60;;
2646;SDS011;1333;50.958;6.770;2023-04-01T03:35:06;7.17;;;1.10;;
2646;SDS011;1333;50.958;6.770;2023-04-01T03:37:31;0.80;;;0.50;;
2646;SDS011;1333;50.958;6.770;2023-04-01T03:39:57;0.80;;;0.70;;
2646;SDS011;1333;50.958;6.770;2023-04-01T03:42:23;0.70;;;0.50;;
2646;SDS011;1333;50.958;6.770;2023-04-01T03:44:48;0.80;;;0.50;;
2646;SDS011;1333;50.958;6.770;2023-04-01T03:47:14;0.70;;;0.50;;
2646;SDS011;1333;50.958;6.770;2023-04-01T03:49:40;0.90;;;0.60;;
2646;SDS011;1333;50.958;6.770;2023-04-01T03:52:08;0.87;;;0.80;;
2646;SDS011;1333;50.958;6.770;2023-04-01T03:54:35;1.10;;;0.60;;
2646;SDS011;1333;50.958;6.770;2023-04-01T03:57:01;0.70;;;0.50;;
2646;SDS011;1333;50.958;6.770;2023-04-01T03:59:26;0.73;;;0.50;;
2646;SDS011;1333;50.958;6.770;2023-04-01T04:01:52;2.40;;;1.13;;
2646;SDS011;1333;50.958;6.770;2023-04-01T04:04:17;1.33;;;0.50;;
2646;SDS011;1333;50.958;6.770;2023-04-01T04:06:43;0.70;;;0.50;;
2646;SDS011;1333;50.958;6.770;2023-04-01T04:09:08;0.70;;;0.50;;
2646;SDS011;1333;50.958;6.770;2023-04-01T04:11:34;0.80;;;0.60;;
2646;SDS011;1333;50.958;6.770;2023-04-01T04:14:00;2.00;;;0.60;;
2646;SDS011;1333;50.958;6.770;2023-04-01T04:16:25;1.10;;;0.70;;
2646;SDS011;1333;50.958;6.770;2023-04-01T04:18:51;0.90;;;0.50;;
2646;SDS011;1333;50.958;6.770;2023-04-01T04:21:16;0.70;;;0.50;;
2646;SDS011;1333;50.958;6.770;2023-04-01T04:23:42;0.80;;;0.60;;
2646;SDS011;1333;50.958;6.770;2023-04-01T04:26:09;0.90;;;0.60;;
2646;SDS011;1333;50.958;6.770;2023-04-01T04:28:36;0.80;;;0.60;;
2646;SDS011;1333;50.958;6.770;2023-04-01T04:31:02;0.77;;;0.53;;
2646;SDS011;1333;50.958;6.770;2023-04-01T04:33:30;0.70;;;0.50;;
2646;SDS011;1333;50.958;6.770;2023-04-01T04:35:56;1.03;;;0.80;;
2646;SDS011;1333;50.958;6.770;2023-04-01T04:38:22;0.77;;;0.57;;
2646;SDS011;1333;50.958;6.770;2023-04-01T04:40:48;0.70;;;0.50;;
2646;SDS011;1333;50.958;6.770;2023-04-01T04:43:15;2.00;;;0.77;;
2646;SDS011;1333;50.958;6.770;2023-04-01T04:45:41;0.80;;;0.60;;
2646;SDS011;1333;50.958;6.770;2023-04-01T04:48:07;0.70;;;0.50;;
2646;SDS011;1333;50.958;6.770;2023-04-01T04:50:34;0.93;;;0.57;;
2646;SDS011;1333;50.958;6.770;2023-04-01T04:53:00;3.80;;;2.43;;
2646;SDS011;1333;50.958;6.770;2023-04-01T04:55:26;1.53;;;0.70;;
2646;SDS011;1333;50.958;6.770;2023-04-01T04:57:52;0.90;;;0.70;;
2646;SDS011;1333;50.958;6.770;2023-04-01T05:00:17;1.00;;;0.60;;
2646;SDS011;1333;50.958;6.770;2023-04-01T05:02:43;0.80;;;0.60;;
2646;SDS011;1333;50.958;6.770;2023-04-01T05:05:08;2.20;;;0.80;;
2646;SDS011;1333;50.958;6.770;2023-04-01T05:07:35;1.40;;;0.60;;
2646;SDS011;1333;50.958;6.770;2023-04-01T05:10:01;1.43;;;0.80;;
2646;SDS011;1333;50.958;6.770;2023-04-01T05:12:26;0.80;;;0.60;;
2646;SDS011;1333;50.958;6.770;2023-04-01T05:14:52;0.80;;;0.60;;
2646;SDS011;1333;50.958;6.770;2023-04-01T05:17:17;1.83;;;0.70;;
2646;SDS011;1333;50.958;6.770;2023-04-01T05:19:43;0.90;;;0.60;;
2646;SDS011;1333;50.958;6.770;2023-04-01T05:22:08;1.20;;;0.73;;
2646;SDS011;1333;50.958;6.770;2023-04-01T05:24:34;1.33;;;0.80;;
2646;SDS011;1333;50.958;6.770;2023-04-01T05:26:59;1.00;;;0.70;;
2646;SDS011;1333;50.958;6.770;2023-04-01T05:29:25;1.10;;;0.87;;
2646;SDS011;1333;50.958;6.770;2023-04-01T05:31:51;0.90;;;0.67;;
2646;SDS011;1333;50.958;6.770;2023-04-01T05:34:17;0.80;;;0.60;;
2646;SDS011;1333;50.958;6.770;2023-04-01T05:36:43;1.00;;;0.70;;
2646;SDS011;1333;50.958;6.770;2023-04-01T05:39:08;1.40;;;0.90;;
2646;SDS011;1333;50.958;6.770;2023-04-01T05:41:35;1.00;;;0.80;;
2646;SDS011;1333;50.958;6.770;2023-04-01T05:44:01;3.33;;;0.90;;
2646;SDS011;1333;50.958;6.770;2023-04-01T05:46:27;0.90;;;0.80;;
2646;SDS011;1333;50.958;6.770;2023-04-01T05:48:52;1.00;;;0.80;;
2646;SDS011;1333;50.958;6.770;2023-04-01T05:51:18;1.00;;;0.90;;
2646;SDS011;1333;50.958;6.770;2023-04-01T05:53:43;1.00;;;0.83;;
2646;SDS011;1333;50.958;6.770;2023-04-01T05:56:09;1.43;;;0.90;;
2646;SDS011;1333;50.958;6.770;2023-04-01T05:58:35;1.40;;;0.80;;
2646;SDS011;1333;50.958;6.770;2023-04-01T06:01:08;1.17;;;0.87;;
2646;SDS011;1333;50.958;6.770;2023-04-01T06:03:36;0.80;;;0.70;;
2646;SDS011;1333;50.958;6.770;2023-04-01T06:06:01;1.50;;;0.83;;
2646;SDS011;1333;50.958;6.770;2023-04-01T06:08:28;0.80;;;0.70;;
2646;SDS011;1333;50.958;6.770;2023-04-01T06:14:17;0.80;;;0.60;;
2646;SDS011;1333;50.958;6.770;2023-04-01T06:17:34;2.03;;;0.93;;
2646;SDS011;1333;50.958;6.770;2023-04-01T06:30:02;1.20;;;0.87;;
2646;SDS011;1333;50.958;6.770;2023-04-01T06:38:12;2.17;;;1.00;;
2646;SDS011;1333;50.958;6.770;2023-04-01T06:40:58;1.77;;;1.03;;
2646;SDS011;1333;50.958;6.770;2023-04-01T06:54:24;2.50;;;1.00;;
2646;SDS011;1333;50.958;6.770;2023-04-01T06:57:00;1.10;;;1.00;;
2646;SDS011;1333;50.958;6.770;2023-04-01T06:59:33;2.10;;;0.80;;
2646;SDS011;1333;50.958;6.770;2023-04-01T07:02:20;1.33;;;1.00;;
2646;SDS011;1333;50.958;6.770;2023-04-01T07:04:57;1.77;;;1.30;;
2646;SDS011;1333;50.958;6.770;2023-04-01T07:07:35;3.40;;;1.10;;
2646;SDS011;1333;50.958;6.770;2023-04-01T07:10:19;1.50;;;1.10;;
2646;SDS011;1333;50.958;6.770;2023-04-01T07:12:56;2.67;;;1.33;;
2646;SDS011;1333;50.958;6.770;2023-04-01T07:15:36;1.53;;;1.40;;
2646;SDS011;1333;50.958;6.770;2023-04-01T07:18:16;1.67;;;1.40;;
2646;SDS011;1333;50.958;6.770;2023-04-01T07:20:47;1.20;;;1.00;;
2646;SDS011;1333;50.958;6.770;2023-04-01T07:23:21;1.30;;;1.20;;
2646;SDS011;1333;50.958;6.770;2023-04-01T07:25:58;1.77;;;1.20;;
2646;SDS011;1333;50.958;6.770;2023-04-01T07:28:30;1.37;;;1.13;;
2646;SDS011;1333;50.958;6.770;2023-04-01T07:31:16;1.20;;;1.10;;
2646;SDS011;1333;50.958;6.770;2023-04-01T07:44:34;3.00;;;1.80;;
2646;SDS011;1333;50.958;6.770;2023-04-01T07:58:02;2.50;;;1.10;;
2646;SDS011;1333;50.958;6.770;2023-04-01T08:00:44;1.00;;;0.90;;
2646;SDS011;1333;50.958;6.770;2023-04-01T08:03:38;1.40;;;1.00;;
2646;SDS011;1333;50.958;6.770;2023-04-01T08:09:43;1.23;;;1.00;;
2646;SDS011;1333;50.958;6.770;2023-04-01T08:14:46;1.00;;;0.90;;
2646;SDS011;1333;50.958;6.770;2023-04-01T08:17:47;2.10;;;0.93;;
2646;SDS011;1333;50.958;6.770;2023-04-01T08:26:05;1.00;;;0.90;;
2646;SDS011;1333;50.958;6.770;2023-04-01T08:29:05;0.80;;;0.60;;
2646;SDS011;1333;50.958;6.770;2023-04-01T08:32:00;1.33;;;0.80;;
2646;SDS011;1333;50.958;6.770;2023-04-01T08:34:37;1.07;;;0.90;;
2646;SDS011;1333;50.958;6.770;2023-04-01T08:37:07;1.20;;;0.70;;
2646;SDS011;1333;50.958;6.770;2023-04-01T08:39:46;1.20;;;1.10;;
2646;SDS011;1333;50.958;6.770;2023-04-01T08:56:33;0.90;;;0.70;;
2646;SDS011;1333;50.958;6.770;2023-04-01T08:59:13;1.00;;;0.70;;
2646;SDS011;1333;50.958;6.770;2023-04-01T09:10:54;0.90;;;0.70;;
2646;SDS011;1333;50.958;6.770;2023-04-01T09:16:13;1.00;;;0.90;;
2646;SDS011;1333;50.958;6.770;2023-04-01T09:33:07;1.30;;;1.10;;
2646;SDS011;1333;50.958;6.770;2023-04-01T09:35:47;1.00;;;0.80;;
2646;SDS011;1333;50.958;6.770;2023-04-01T09:44:01;1.33;;;1.00;;
2646;SDS011;1333;50.958;6.770;2023-04-01T09:46:56;1.00;;;0.90;;
2646;SDS011;1333;50.958;6.770;2023-04-01T09:54:59;1.43;;;0.93;;
2646;SDS011;1333;50.958;6.770;2023-04-01T10:03:16;1.20;;;1.00;;
2646;SDS011;1333;50.958;6.770;2023-04-01T10:11:25;1.30;;;1.20;;
2646;SDS011;1333;50.958;6.770;2023-04-01T10:14:24;1.47;;;1.33;;
2646;SDS011;1333;50.958;6.770;2023-04-01T10:17:08;1.40;;;1.27;;
2646;SDS011;1333;50.958;6.770;2023-04-01T10:19:46;1.83;;;1.50;;
2646;SDS011;1333;50.958;6.770;2023-04-01T10:30:01;1.33;;;1.20;;
2646;SDS011;1333;50.958;6.770;2023-04-01T10:38:41;1.70;;;1.50;;
2646;SDS011;1333;50.958;6.770;2023-04-01T10:54:31;1.70;;;1.60;;
2646;SDS011;1333;50.958;6.770;2023-04-01T11:02:12;2.57;;;2.00;;
2646;SDS011;1333;50.958;6.770;2023-04-01T11:05:00;1.30;;;1.20;;
2646;SDS011;1333;50.958;6.770;2023-04-01T11:30:53;1.40;;;1.10;;
2646;SDS011;1333;50.958;6.770;2023-04-01T11:42:10;1.30;;;0.97;;
2646;SDS011;1333;50.958;6.770;2023-04-01T11:44:58;1.30;;;1.00;;
2646;SDS011;1333;50.958;6.770;2023-04-01T11:53:55;2.47;;;1.50;;
2646;SDS011;1333;50.958;6.770;2023-04-01T11:56:36;1.33;;;1.23;;
2646;SDS011;1333;50.958;6.770;2023-04-01T11:59:37;1.50;;;1.40;;
2646;SDS011;1333;50.958;6.770;2023-04-01T12:02:29;1.33;;;1.23;;
2646;SDS011;1333;50.958;6.770;2023-04-01T12:11:08;1.47;;;1.20;;
2646;SDS011;1333;50.958;6.770;2023-04-01T12:24:59;3.07;;;1.20;;
2646;SDS011;1333;50.958;6.770;2023-04-01T12:27:35;1.40;;;1.10;;
2646;SDS011;1333;50.958;6.770;2023-04-01T12:32:50;1.10;;;1.00;;
2646;SDS011;1333;50.958;6.770;2023-04-01T12:35:59;2.13;;;1.50;;
2646;SDS011;1333;50.958;6.770;2023-04-01T12:41:42;1.13;;;1.00;;
2646;SDS011;1333;50.958;6.770;2023-04-01T12:44:29;2.37;;;1.70;;
2646;SDS011;1333;50.958;6.770;2023-04-01T12:47:19;1.20;;;1.10;;
2646;SDS011;1333;50.958;6.770;2023-04-01T12:50:06;2.20;;;1.40;;
2646;SDS011;1333;50.958;6.770;2023-04-01T12:55:37;1.20;;;1.00;;
2646;SDS011;1333;50.958;6.770;2023-04-01T12:58:20;1.30;;;1.13;;
2646;SDS011;1333;50.958;6.770;2023-04-01T13:03:52;1.50;;;1.23;;
2646;SDS011;1333;50.958;6.770;2023-04-01T13:09:35;1.30;;;1.20;;
2646;SDS011;1333;50.958;6.770;2023-04-01T13:12:29;1.23;;;1.13;;
2646;SDS011;1333;50.958;6.770;2023-04-01T13:17:48;3.90;;;3.03;;
2646;SDS011;1333;50.958;6.770;2023-04-01T13:20:43;1.63;;;1.50;;
2646;SDS011;1333;50.958;6.770;2023-04-01T13:23:33;1.43;;;1.30;;
2646;SDS011;1333;50.958;6.770;2023-04-01T13:28:39;1.33;;;1.23;;
2646;SDS011;1333;50.958;6.770;2023-04-01T13:40:11;1.57;;;1.47;;
2646;SDS011;1333;50.958;6.770;2023-04-01T13:42:24;2.20;;;1.70;;
2646;SDS011;1333;50.958;6.770;2023-04-01T13:45:13;1.93;;;1.50;;
2646;SDS011;1333;50.958;6.770;2023-04-01T13:47:56;1.90;;;1.50;;
2646;SDS011;1333;50.958;6.770;2023-04-01T13:50:54;1.40;;;1.30;;
2646;SDS011;1333;50.958;6.770;2023-04-01T13:56:23;1.50;;;1.40;;
2646;SDS011;1333;50.958;6.770;2023-04-01T14:02:03;3.77;;;1.70;;
2646;SDS011;1333;50.958;6.770;2023-04-01T14:08:13;2.23;;;1.50;;
2646;SDS011;1333;50.958;6.770;2023-04-01T14:10:40;1.70;;;1.60;;
2646;SDS011;1333;50.958;6.770;2023-04-01T14:16:31;2.00;;;1.80;;
2646;SDS011;1333;50.958;6.770;2023-04-01T14:19:27;2.10;;;1.53;;
2646;SDS011;1333;50.958;6.770;2023-04-01T14:22:23;2.13;;;1.53;;
2646;SDS011;1333;50.958;6.770;2023-04-01T14:28:17;2.03;;;1.93;;
2646;SDS011;1333;50.958;6.770;2023-04-01T14:33:33;2.03;;;1.83;;
2646;SDS011;1333;50.958;6.770;2023-04-01T14:49:32;2.53;;;2.33;;
2646;SDS011;1333;50.958;6.770;2023-04-01T14:52:13;1.70;;;1.53;;
2646;SDS011;1333;50.958;6.770;2023-04-01T14:54:50;1.60;;;1.50;;
2646;SDS011;1333;50.958;6.770;2023-04-01T14:57:29;2.30;;;2.10;;
2646;SDS011;1333;50.958;6.770;2023-04-01T15:00:13;2.40;;;2.17;;
2646;SDS011;1333;50.958;6.770;2023-04-01T15:08:38;2.13;;;1.93;;
2646;SDS011;1333;50.958;6.770;2023-04-01T15:24:56;2.30;;;2.10;;
2646;SDS011;1333;50.958;6.770;2023-04-01T15:33:02;2.37;;;2.17;;
2646;SDS011;1333;50.958;6.770;2023-04-01T15:39:05;2.50;;;2.30;;
2646;SDS011;1333;50.958;6.770;2023-04-01T15:49:43;3.13;;;2.83;;
2646;SDS011;1333;50.958;6.770;2023-04-01T15:52:24;2.00;;;1.70;;
2646;SDS011;1333;50.958;6.770;2023-04-01T15:55:20;5.90;;;2.17;;
2646;SDS011;1333;50.958;6.770;2023-04-01T16:03:18;1.90;;;1.70;;
2646;SDS011;1333;50.958;6.770;2023-04-01T16:16:53;2.90;;;2.00;;
2646;SDS011;1333;50.958;6.770;2023-04-01T16:22:06;2.00;;;1.80;;
2646;SDS011;1333;50.958;6.770;2023-04-01T16:27:36;2.10;;;1.90;;
2646;SDS011;1333;50.958;6.770;2023-04-01T16:35:42;2.13;;;1.70;;
2646;SDS011;1333;50.958;6.770;2023-04-01T16:43:55;1.60;;;1.47;;
2646;SDS011;1333;50.958;6.770;2023-04-01T16:46:34;2.30;;;1.90;;
2646;SDS011;1333;50.958;6.770;2023-04-01T16:54:14;1.40;;;1.30;;
2646;SDS011;1333;50.958;6.770;2023-04-01T17:05:42;1.60;;;1.50;;
2646;SDS011;1333;50.958;6.770;2023-04-01T17:08:18;1.87;;;1.67;;
2646;SDS011;1333;50.958;6.770;2023-04-01T17:10:50;1.67;;;1.57;;
2646;SDS011;1333;50.958;6.770;2023-04-01T17:19:36;1.93;;;1.73;;
2646;SDS011;1333;50.958;6.770;2023-04-01T17:30:35;2.20;;;1.93;;
2646;SDS011;1333;50.958;6.770;2023-04-01T17:35:59;2.20;;;1.80;;
2646;SDS011;1333;50.958;6.770;2023-04-01T17:38:50;3.00;;;1.97;;
2646;SDS011;1333;50.958;6.770;2023-04-01T17:41:42;3.03;;;2.43;;
2646;SDS011;1333;50.958;6.770;2023-04-01T17:52:46;1.90;;;1.80;;
2646;SDS011;1333;50.958;6.770;2023-04-01T17:57:57;2.27;;;2.00;;
2646;SDS011;1333;50.958;6.770;2023-04-01T18:00:39;3.30;;;2.47;;
2646;SDS011;1333;50.958;6.770;2023-04-01T18:08:37;3.30;;;3.00;;
2646;SDS011;1333;50.958;6.770;2023-04-01T18:22:42;3.30;;;2.90;;
2646;SDS011;1333;50.958;6.770;2023-04-01T18:25:35;3.70;;;2.50;;
2646;SDS011;1333;50.958;6.770;2023-04-01T18:28:25;5.73;;;4.23;;
2646;SDS011;1333;50.958;6.770;2023-04-01T18:31:18;2.60;;;2.40;;
2646;SDS011;1333;50.958;6.770;2023-04-01T18:34:30;3.60;;;2.53;;
2646;SDS011;1333;50.958;6.770;2023-04-01T18:39:11;4.10;;;3.13;;
2646;SDS011;1333;50.958;6.770;2023-04-01T18:50:11;3.10;;;2.27;;
2646;SDS011;1333;50.958;6.770;2023-04-01T18:52:56;3.00;;;2.60;;
2646;SDS011;1333;50.958;6.770;2023-04-01T18:55:42;3.17;;;2.50;;
2646;SDS011;1333;50.958;6.770;2023-04-01T19:00:42;3.10;;;2.90;;
2646;SDS011;1333;50.958;6.770;2023-04-01T19:06:08;2.53;;;2.33;;
2646;SDS011;1333;50.958;6.770;2023-04-01T19:08:47;2.60;;;2.40;;
2646;SDS011;1333;50.958;6.770;2023-04-01T19:16:46;2.37;;;2.17;;
2646;SDS011;1333;50.958;6.770;2023-04-01T19:21:58;3.40;;;3.10;;
2646;SDS011;1333;50.958;6.770;2023-04-01T19:24:45;4.60;;;3.13;;
2646;SDS011;1333;50.958;6.770;2023-04-01T19:33:00;3.63;;;2.77;;
2646;SDS011;1333;50.958;6.770;2023-04-01T19:35:53;4.83;;;3.27;;
2646;SDS011;1333;50.958;6.770;2023-04-01T19:38:38;3.87;;;2.57;;
2646;SDS011;1333;50.958;6.770;2023-04-01T19:49:18;4.23;;;3.23;;
2646;SDS011;1333;50.958;6.770;2023-04-01T19:52:00;4.43;;;3.20;;
2646;SDS011;1333;50.958;6.770;2023-04-01T19:54:58;3.63;;;2.97;;
2646;SDS011;1333;50.958;6.770;2023-04-01T19:57:56;4.80;;;4.10;;
2646;SDS011;1333;50.958;6.770;2023-04-01T20:00:47;4.33;;;3.93;;
2646;SDS011;1333;50.958;6.770;2023-04-01T20:06:06;5.07;;;3.57;;
2646;SDS011;1333;50.958;6.770;2023-04-01T20:10:14;3.40;;;3.10;;
2646;SDS011;1333;50.958;6.770;2023-04-01T20:12:37;4.20;;;3.80;;
2646;SDS011;1333;50.958;6.770;2023-04-01T20:18:13;4.43;;;3.97;;
2646;SDS011;1333;50.958;6.770;2023-04-01T20:20:53;5.10;;;4.60;;
2646;SDS011;1333;50.958;6.770;2023-04-01T20:26:39;3.70;;;3.20;;
2646;SDS011;1333;50.958;6.770;2023-04-01T20:31:59;5.40;;;4.27;;
2646;SDS011;1333;50.958;6.770;2023-04-01T20:37:27;5.33;;;4.00;;
2646;SDS011;1333;50.958;6.770;2023-04-01T20:45:24;5.83;;;3.80;;
2646;SDS011;1333;50.958;6.770;2023-04-01T21:05:06;3.73;;;2.93;;
2646;SDS011;1333;50.958;6.770;2023-04-01T21:08:34;2.93;;;2.70;;
2646;SDS011;1333;50.958;6.770;2023-04-01T21:11:12;2.97;;;2.67;;
2646;SDS011;1333;50.958;6.770;2023-04-01T21:13:54;3.10;;;2.80;;
2646;SDS011;1333;50.958;6.770;2023-04-01T21:22:36;2.77;;;2.43;;
2646;SDS011;1333;50.958;6.770;2023-04-01T21:33:37;2.90;;;2.70;;
2646;SDS011;1333;50.958;6.770;2023-04-01T21:38:58;2.70;;;2.40;;
2646;SDS011;1333;50.958;6.770;2023-04-01T21:41:35;2.67;;;2.40;;
2646;SDS011;1333;50.958;6.770;2023-04-01T21:44:36;3.00;;;2.73;;
2646;SDS011;1333;50.958;6.770;2023-04-01T22:01:25;2.37;;;2.17;;
2646;SDS011;1333;50.958;6.770;2023-04-01T22:06:33;4.23;;;3.83;;
2646;SDS011;1333;50.958;6.770;2023-04-01T22:09:11;3.70;;;3.40;;
2646;SDS011;1333;50.958;6.770;2023-04-01T22:12:24;5.00;;;4.27;;
2646;SDS011;1333;50.958;6.770;2023-04-01T22:19:56;5.67;;;5.17;;
2646;SDS011;1333;50.958;6.770;2023-04-01T22:25:44;4.00;;;3.70;;
2646;SDS011;1333;50.958;6.770;2023-04-01T22:30:50;5.43;;;4.13;;
2646;SDS011;1333;50.958;6.770;2023-04-01T22:33:22;4.07;;;3.40;;
2646;SDS011;1333;50.958;6.770;2023-04-01T22:36:06;4.53;;;2.67;;
2646;SDS011;1333;50.958;6.770;2023-04-01T22:41:27;3.70;;;2.90;;
2646;SDS011;1333;50.958;6.770;2023-04-01T22:44:07;4.70;;;3.50;;
2646;SDS011;1333;50.958;6.770;2023-04-01T22:46:55;4.10;;;3.57;;
2646;SDS011;1333;50.958;6.770;2023-04-01T22:49:41;5.40;;;3.40;;
2646;SDS011;1333;50.958;6.770;2023-04-01T22:52:42;3.57;;;3.27;;
2646;SDS011;1333;50.958;6.770;2023-04-01T22:55:24;3.70;;;2.93;;
2646;SDS011;1333;50.958;6.770;2023-04-01T22:58:05;3.60;;;2.90;;
2646;SDS011;1333;50.958;6.770;2023-04-01T23:00:39;3.20;;;2.77;;
2646;SDS011;1333;50.958;6.770;2023-04-01T23:03:15;4.13;;;3.20;;
2646;SDS011;1333;50.958;6.770;2023-04-01T23:05:56;3.40;;;3.10;;
2646;SDS011;1333;50.958;6.770;2023-04-01T23:10:56;3.53;;;2.67;;
2646;SDS011;1333;50.958;6.770;2023-04-01T23:13:29;4.53;;;3.80;;
2646;SDS011;1333;50.958;6.770;2023-04-01T23:16:02;4.90;;;4.23;;
2646;SDS011;1333;50.958;6.770;2023-04-01T23:18:37;4.80;;;3.70;;
2646;SDS011;1333;50.958;6.770;2023-04-01T23:21:26;4.10;;;3.80;;
2646;SDS011;1333;50.958;6.770;2023-04-01T23:24:24;4.70;;;3.37;;
2646;SDS011;1333;50.958;6.770;2023-04-01T23:29:44;3.47;;;3.17;;
2646;SDS011;1333;50.958;6.770;2023-04-01T23:32:14;5.90;;;5.07;;
2646;SDS011;1333;50.958;6.770;2023-04-01T23:34:58;4.50;;;3.87;;
2646;SDS011;1333;50.958;6.770;2023-04-01T23:37:25;5.20;;;4.70;;
2646;SDS011;1333;50.958;6.770;2023-04-01T23:39:53;5.47;;;4.83;;
2646;SDS011;1333;50.958;6.770;2023-04-01T23:42:21;5.10;;;4.63;;
2646;SDS011;1333;50.958;6.770;2023-04-01T23:44:56;6.43;;;4.40;;
2646;SDS011;1333;50.958;6.770;2023-04-01T23:47:24;5.03;;;4.33;;
2646;SDS011;1333;50.958;6.770;2023-04-01T23:49:56;6.27;;;4.23;;
2646;SDS011;1333;50.958;6.770;2023-04-01T23:52:27;5.00;;;4.50;;
2646;SDS011;1333;50.958;6.770;2023-04-01T23:55:04;5.97;;;4.93;;
2646;SDS011;1333;50.958;6.770;2023-04-01T23:57:40;6.10;;;4.50;;
